Time;durP1;ratioP1;P1;durP2;ratioP2;P2;SDS_P1;SDS_P2;PMS_P1;PMS_P2;Temp;Humidity;BMP_temperature;BMP_pressure;BME280_temperature;BME280_humidity;BME280_pressure;Samples;Min_cycle;Max_cycle;Signal;HPM_P1;HPM_P2
2023/10/21 00:00:59;;;;;;;2.00;0.70;;;;;;;;;;5035882;28;20046;-84
2023/10/21 00:03:25;;;;;;;0.80;0.70;;;;;;;;;;5031136;28;20033;-83
2023/10/21 00:05:51;;;;;;;3.13;2.08;;;;;;;;;;5035807;28;20037;-85
2023/10/21 00:08:16;;;;;;;2.15;1.50;;;;;;;;;;5042620;28;20075;-82
2023/10/21 00:10:42;;;;;;;1.60;0.80;;;;;;;;;;5036935;28;20120;-84
2023/10/21 00:13:07;;;;;;;1.10;0.80;;;;;;;;;;5032530;28;20037;-85
2023/10/21 00:15:34;;;;;;;3.92;0.77;;;;;;;;;;5028032;28;20037;-82
2023/10/21 00:17:59;;;;;;;0.73;0.50;;;;;;;;;;5042695;28;20606;-84
2023/10/21 00:20:25;;;;;;;0.77;0.70;;;;;;;;;;5038710;28;20045;-83
2023/10/21 00:22:50;;;;;;;0.93;0.68;;;;;;;;;;5036852;28;20030;-84
2023/10/21 00:25:16;;;;;;;1.83;0.60;;;;;;;;;;5032398;28;20420;-84
2023/10/21 00:27:41;;;;;;;0.60;0.60;;;;;;;;;;5038912;28;20033;-83
2023/10/21 00:30:07;;;;;;;1.13;0.60;;;;;;;;;;5040108;28;20045;-84
2023/10/21 00:32:32;;;;;;;0.80;0.60;;;;;;;;;;5032356;28;20034;-84
2023/10/21 00:34:58;;;;;;;1.30;0.60;;;;;;;;;;5030827;28;20038;-83
2023/10/21 00:37:23;;;;;;;0.60;0.50;;;;;;;;;;5032219;28;20033;-83
2023/10/21 00:39:49;;;;;;;0.90;0.50;;;;;;;;;;5043832;28;20522;-84
2023/10/21 00:42:14;;;;;;;0.70;0.60;;;;;;;;;;5038711;28;20120;-85
2023/10/21 00:44:40;;;;;;;2.83;0.82;;;;;;;;;;5032914;28;20037;-84
2023/10/21 00:47:05;;;;;;;1.30;0.82;;;;;;;;;;5027870;28;20030;-82
2023/10/21 00:49:31;;;;;;;1.13;0.70;;;;;;;;;;5042445;28;20056;-84
2023/10/21 00:51:58;;;;;;;0.93;0.47;;;;;;;;;;5037395;28;20403;-83
2023/10/21 00:54:27;;;;;;;1.70;0.60;;;;;;;;;;5034823;28;20063;-83
2023/10/21 00:56:56;;;;;;;1.38;0.73;;;;;;;;;;5027850;28;20034;-86
2023/10/21 00:59:25;;;;;;;0.30;0.30;;;;;;;;;;5039306;28;20063;-83
2023/10/21 01:01:50;;;;;;;0.63;0.50;;;;;;;;;;5037302;28;20052;-83
2023/10/21 01:04:17;;;;;;;0.65;0.50;;;;;;;;;;5034071;28;20045;-82
2023/10/21 01:06:43;;;;;;;1.25;0.40;;;;;;;;;;5008842;28;20090;-84
2023/10/21 01:09:10;;;;;;;1.70;0.50;;;;;;;;;;5034237;28;20053;-83
2023/10/21 01:11:36;;;;;;;0.68;0.40;;;;;;;;;;5038879;28;20137;-83
2023/10/21 01:14:03;;;;;;;3.13;0.60;;;;;;;;;;5035766;28;20034;-83
2023/10/21 01:16:28;;;;;;;0.82;0.40;;;;;;;;;;5031132;28;20041;-83
2023/10/21 01:18:54;;;;;;;2.33;0.50;;;;;;;;;;5030582;28;20037;-84
2023/10/21 01:21:19;;;;;;;0.65;0.45;;;;;;;;;;5042619;28;20037;-85
2023/10/21 01:23:45;;;;;;;1.20;0.50;;;;;;;;;;5037159;28;20041;-84
2023/10/21 01:26:11;;;;;;;0.20;0.20;;;;;;;;;;5031695;28;20038;-84
2023/10/21 01:28:36;;;;;;;0.90;0.38;;;;;;;;;;5029474;28;20030;-84
2023/10/21 01:31:02;;;;;;;1.35;0.50;;;;;;;;;;5039702;28;20044;-85
2023/10/21 01:33:27;;;;;;;0.65;0.40;;;;;;;;;;5039145;28;20112;-83
2023/10/21 01:35:53;;;;;;;1.10;0.50;;;;;;;;;;5035055;28;20038;-83
2023/10/21 01:38:19;;;;;;;0.30;0.30;;;;;;;;;;5029789;28;20018;-84
2023/10/21 01:40:47;;;;;;;0.57;0.40;;;;;;;;;;5043781;28;20061;-85
2023/10/21 01:43:12;;;;;;;1.90;0.60;;;;;;;;;;5039808;28;20041;-85
2023/10/21 01:45:38;;;;;;;0.90;0.45;;;;;;;;;;5030075;28;20040;-84
2023/10/21 01:48:05;;;;;;;2.10;0.70;;;;;;;;;;5023025;28;20022;-83
2023/10/21 01:50:31;;;;;;;3.40;1.15;;;;;;;;;;5021473;28;20053;-85
2023/10/21 01:52:56;;;;;;;2.40;1.10;;;;;;;;;;5036314;28;20021;-85
2023/10/21 01:55:23;;;;;;;1.20;0.80;;;;;;;;;;5036265;28;20092;-82
2023/10/21 01:57:48;;;;;;;1.13;0.70;;;;;;;;;;5035267;28;20098;-84
2023/10/21 02:00:18;;;;;;;1.10;0.68;;;;;;;;;;5026092;28;20491;-85
2023/10/21 02:02:55;;;;;;;0.60;0.50;;;;;;;;;;5041091;28;20041;-83
2023/10/21 02:05:22;;;;;;;1.70;0.65;;;;;;;;;;5016360;28;20034;-83
2023/10/21 02:07:49;;;;;;;1.55;0.52;;;;;;;;;;5016335;28;20400;-83
2023/10/21 02:10:17;;;;;;;0.82;0.40;;;;;;;;;;5027270;28;20069;-84
2023/10/21 02:12:42;;;;;;;1.95;0.40;;;;;;;;;;5039898;28;20049;-83
2023/10/21 02:15:11;;;;;;;0.45;0.45;;;;;;;;;;5039739;28;20065;-84
2023/10/21 02:17:55;;;;;;;0.30;0.30;;;;;;;;;;5018266;28;20026;-85
2023/10/21 02:20:21;;;;;;;2.72;0.40;;;;;;;;;;5030548;28;20046;-83
2023/10/21 02:22:46;;;;;;;0.50;0.30;;;;;;;;;;5036588;28;20049;-83
2023/10/21 02:25:12;;;;;;;0.52;0.40;;;;;;;;;;5039701;28;20058;-83
2023/10/21 02:27:41;;;;;;;1.02;0.40;;;;;;;;;;5036046;28;20040;-84
2023/10/21 02:30:15;;;;;;;0.80;0.50;;;;;;;;;;5031789;28;20053;-83
2023/10/21 02:32:48;;;;;;;0.90;0.43;;;;;;;;;;5031914;28;20059;-85
2023/10/21 02:35:14;;;;;;;1.70;0.40;;;;;;;;;;5042403;28;20038;-84
2023/10/21 02:37:41;;;;;;;0.45;0.32;;;;;;;;;;5037094;28;20038;-84
2023/10/21 02:40:07;;;;;;;0.30;0.30;;;;;;;;;;5033390;28;20044;-84
2023/10/21 02:42:32;;;;;;;0.93;0.50;;;;;;;;;;5029471;28;20038;-84
2023/10/21 02:44:59;;;;;;;0.40;0.30;;;;;;;;;;5042595;28;20065;-85
2023/10/21 02:47:25;;;;;;;2.60;0.40;;;;;;;;;;5039218;28;20439;-83
2023/10/21 02:49:51;;;;;;;0.88;0.45;;;;;;;;;;5032105;28;20492;-85
2023/10/21 02:52:16;;;;;;;0.40;0.40;;;;;;;;;;5030016;28;20495;-85
2023/10/21 02:54:42;;;;;;;0.30;0.30;;;;;;;;;;5037428;28;20037;-82
2023/10/21 02:57:07;;;;;;;0.50;0.30;;;;;;;;;;5036802;28;20050;-83
2023/10/21 02:59:36;;;;;;;0.80;0.40;;;;;;;;;;5014487;28;20042;-85
2023/10/21 03:02:01;;;;;;;0.63;0.32;;;;;;;;;;5021516;28;20044;-85
2023/10/21 03:04:27;;;;;;;2.17;0.38;;;;;;;;;;5009626;28;20076;-84
2023/10/21 03:06:53;;;;;;;0.28;0.28;;;;;;;;;;5021858;28;20476;-86
2023/10/21 03:09:18;;;;;;;0.35;0.32;;;;;;;;;;5033747;28;20029;-83
2023/10/21 03:11:44;;;;;;;0.50;0.30;;;;;;;;;;5029173;28;20030;-84
2023/10/21 03:14:09;;;;;;;0.43;0.35;;;;;;;;;;5027546;28;20093;-84
2023/10/21 03:16:35;;;;;;;0.40;0.30;;;;;;;;;;5042046;28;20092;-83
2023/10/21 03:19:01;;;;;;;0.80;0.55;;;;;;;;;;5037123;28;20357;-84
2023/10/21 03:21:26;;;;;;;0.40;0.20;;;;;;;;;;5013186;28;20034;-83
2023/10/21 03:23:52;;;;;;;0.35;0.35;;;;;;;;;;5019458;28;20048;-83
2023/10/21 03:26:17;;;;;;;0.60;0.40;;;;;;;;;;5029320;28;20422;-84
2023/10/21 03:28:43;;;;;;;1.17;0.30;;;;;;;;;;5030455;28;20033;-84
2023/10/21 03:31:09;;;;;;;2.15;0.50;;;;;;;;;;5027573;28;20469;-83
2023/10/21 03:33:34;;;;;;;2.45;0.32;;;;;;;;;;5022310;28;20037;-82
2023/10/21 03:36:04;;;;;;;0.70;0.22;;;;;;;;;;5023639;28;20116;-83
2023/10/21 03:38:30;;;;;;;0.30;0.30;;;;;;;;;;5033176;28;20057;-82
2023/10/21 03:41:05;;;;;;;1.17;0.47;;;;;;;;;;5028372;28;20065;-82
2023/10/21 03:43:31;;;;;;;0.93;0.50;;;;;;;;;;5020951;28;20048;-83
2023/10/21 03:45:57;;;;;;;0.30;0.30;;;;;;;;;;5023095;28;20117;-84
2023/10/21 03:48:23;;;;;;;2.15;0.50;;;;;;;;;;5033059;28;20053;-83
2023/10/21 03:50:50;;;;;;;0.38;0.30;;;;;;;;;;5022700;28;20056;-83
2023/10/21 03:53:16;;;;;;;0.40;0.30;;;;;;;;;;5023369;28;20242;-83
2023/10/21 03:55:43;;;;;;;0.55;0.30;;;;;;;;;;5016344;28;20041;-82
2023/10/21 03:58:10;;;;;;;0.80;0.45;;;;;;;;;;5031403;28;20037;-84
2023/10/21 04:00:39;;;;;;;0.57;0.40;;;;;;;;;;5030045;28;20052;-83
2023/10/21 04:03:05;;;;;;;0.50;0.47;;;;;;;;;;5023582;28;20042;-83
2023/10/21 04:05:31;;;;;;;1.38;0.30;;;;;;;;;;5020292;28;20506;-83
2023/10/21 04:07:57;;;;;;;2.47;0.50;;;;;;;;;;5035293;28;20044;-84
2023/10/21 04:10:23;;;;;;;1.08;0.52;;;;;;;;;;5032299;28;20049;-83
2023/10/21 04:12:48;;;;;;;2.80;0.60;;;;;;;;;;5033671;28;20056;-83
2023/10/21 04:15:14;;;;;;;0.50;0.43;;;;;;;;;;5026308;28;20366;-85
2023/10/21 04:17:40;;;;;;;3.72;1.90;;;;;;;;;;5029063;28;20060;-83
2023/10/21 04:20:06;;;;;;;2.33;1.10;;;;;;;;;;5038649;28;20037;-85
2023/10/21 04:22:31;;;;;;;2.08;0.70;;;;;;;;;;5033401;28;20046;-83
2023/10/21 04:24:57;;;;;;;1.20;0.70;;;;;;;;;;5027464;28;20034;-83
2023/10/21 04:27:22;;;;;;;2.10;0.70;;;;;;;;;;5018283;28;20033;-82
2023/10/21 04:29:48;;;;;;;1.33;0.70;;;;;;;;;;5035901;28;20056;-84
2023/10/21 04:32:14;;;;;;;0.80;0.70;;;;;;;;;;5029976;28;20037;-85
2023/10/21 04:34:39;;;;;;;1.15;0.60;;;;;;;;;;5027006;28;20037;-84
2023/10/21 04:37:05;;;;;;;0.93;0.60;;;;;;;;;;5028051;28;20061;-83
2023/10/21 04:39:30;;;;;;;1.30;0.47;;;;;;;;;;5037403;28;20506;-85
2023/10/21 04:41:56;;;;;;;0.57;0.57;;;;;;;;;;5039798;28;20045;-85
2023/10/21 04:44:21;;;;;;;1.25;0.40;;;;;;;;;;5036837;28;20060;-83
2023/10/21 04:46:46;;;;;;;0.57;0.50;;;;;;;;;;5029844;28;20045;-83
2023/10/21 04:49:12;;;;;;;0.47;0.40;;;;;;;;;;5031954;28;20120;-84
2023/10/21 04:51:39;;;;;;;0.70;0.70;;;;;;;;;;5039635;28;20076;-83
2023/10/21 04:54:07;;;;;;;4.32;3.10;;;;;;;;;;5032908;28;20041;-83
2023/10/21 04:56:32;;;;;;;9.65;3.78;;;;;;;;;;5029411;28;20036;-82
2023/10/21 04:58:59;;;;;;;12.63;3.42;;;;;;;;;;5015570;28;20029;-84
2023/10/21 05:01:24;;;;;;;2.60;1.60;;;;;;;;;;5039942;28;20037;-83
2023/10/21 05:03:50;;;;;;;4.38;1.80;;;;;;;;;;5038520;28;20044;-84
2023/10/21 05:06:15;;;;;;;4.03;1.90;;;;;;;;;;5033383;28;20061;-82
2023/10/21 05:08:41;;;;;;;4.47;1.90;;;;;;;;;;5008519;28;20032;-85
2023/10/21 05:11:06;;;;;;;3.17;1.70;;;;;;;;;;5036356;28;20073;-83
2023/10/21 05:13:32;;;;;;;2.97;1.67;;;;;;;;;;5039396;28;20045;-83
2023/10/21 05:15:58;;;;;;;3.75;1.50;;;;;;;;;;5033840;28;20483;-82
2023/10/21 05:18:24;;;;;;;3.10;2.05;;;;;;;;;;5029521;28;20041;-84
2023/10/21 05:20:49;;;;;;;5.60;1.70;;;;;;;;;;5027924;28;20049;-83
2023/10/21 05:23:15;;;;;;;3.53;1.77;;;;;;;;;;5038079;28;20128;-83
2023/10/21 05:25:40;;;;;;;3.22;1.50;;;;;;;;;;5032778;28;20089;-82
2023/10/21 05:28:06;;;;;;;3.97;1.67;;;;;;;;;;5031889;28;20044;-84
2023/10/21 05:30:32;;;;;;;2.85;1.60;;;;;;;;;;5022195;28;20117;-83
2023/10/21 05:32:57;;;;;;;5.38;1.58;;;;;;;;;;5034346;28;20565;-84
2023/10/21 05:35:23;;;;;;;2.55;1.42;;;;;;;;;;5030339;28;20042;-82
2023/10/21 05:37:48;;;;;;;2.53;1.42;;;;;;;;;;5024472;28;20120;-82
2023/10/21 05:40:14;;;;;;;3.13;1.85;;;;;;;;;;5019822;28;20041;-83
2023/10/21 05:42:39;;;;;;;2.95;1.20;;;;;;;;;;5029556;28;20033;-82
2023/10/21 05:45:08;;;;;;;1.75;1.27;;;;;;;;;;5032192;28;20037;-83
2023/10/21 05:47:35;;;;;;;3.30;1.10;;;;;;;;;;5029278;28;20034;-82
2023/10/21 05:50:00;;;;;;;1.60;1.15;;;;;;;;;;5023438;28;20073;-82
2023/10/21 05:52:26;;;;;;;1.75;1.20;;;;;;;;;;5025143;28;20068;-82
2023/10/21 05:54:51;;;;;;;2.42;1.48;;;;;;;;;;5025345;28;20041;-82
2023/10/21 05:57:17;;;;;;;2.78;1.70;;;;;;;;;;5027688;28;20033;-83
2023/10/21 05:59:42;;;;;;;5.97;3.05;;;;;;;;;;5025873;28;20038;-83
2023/10/21 06:02:08;;;;;;;6.50;3.95;;;;;;;;;;5018561;28;20052;-82
2023/10/21 06:04:33;;;;;;;6.38;3.95;;;;;;;;;;5033563;28;20087;-83
2023/10/21 06:07:00;;;;;;;7.97;5.95;;;;;;;;;;5025642;28;20050;-83
2023/10/21 06:09:26;;;;;;;5.82;3.90;;;;;;;;;;5023446;28;20045;-83
2023/10/21 06:11:52;;;;;;;3.40;2.38;;;;;;;;;;5031494;28;20037;-83
2023/10/21 06:14:17;;;;;;;1.83;1.40;;;;;;;;;;5033358;28;20059;-82
2023/10/21 06:16:43;;;;;;;2.15;1.50;;;;;;;;;;5029504;28;20104;-83
2023/10/21 06:19:09;;;;;;;2.30;1.30;;;;;;;;;;5023566;28;20102;-83
2023/10/21 06:21:35;;;;;;;2.95;1.10;;;;;;;;;;5028892;28;20461;-84
2023/10/21 06:24:03;;;;;;;2.63;1.30;;;;;;;;;;5025894;28;20131;-82
2023/10/21 06:26:31;;;;;;;1.85;1.10;;;;;;;;;;5024641;28;20045;-81
2023/10/21 06:28:57;;;;;;;2.60;1.20;;;;;;;;;;5025363;28;20038;-82
2023/10/21 06:31:23;;;;;;;2.17;1.10;;;;;;;;;;5019219;28;20046;-81
2023/10/21 06:33:49;;;;;;;2.42;1.17;;;;;;;;;;5021336;28;20072;-80
2023/10/21 06:36:15;;;;;;;5.07;1.58;;;;;;;;;;5030386;28;20044;-82
2023/10/21 06:38:41;;;;;;;1.75;1.15;;;;;;;;;;5025746;28;20073;-82
2023/10/21 06:41:06;;;;;;;1.73;0.90;;;;;;;;;;5016842;28;20054;-82
2023/10/21 06:43:32;;;;;;;7.43;1.23;;;;;;;;;;5016370;28;20555;-83
2023/10/21 06:45:57;;;;;;;3.45;0.90;;;;;;;;;;5031599;28;20099;-82
2023/10/21 06:48:23;;;;;;;1.65;1.02;;;;;;;;;;5027158;28;20086;-81
2023/10/21 06:50:48;;;;;;;3.70;1.25;;;;;;;;;;5023442;28;20041;-82
2023/10/21 06:53:14;;;;;;;1.13;0.90;;;;;;;;;;5016407;28;20054;-81
2023/10/21 06:55:44;;;;;;;2.63;1.10;;;;;;;;;;5026105;28;20062;-83
2023/10/21 06:58:13;;;;;;;2.28;1.00;;;;;;;;;;5029217;28;20052;-83
2023/10/21 07:00:38;;;;;;;1.27;1.00;;;;;;;;;;5024004;28;20045;-83
2023/10/21 07:03:05;;;;;;;1.48;1.02;;;;;;;;;;5018228;28;20029;-83
2023/10/21 07:05:30;;;;;;;3.30;1.25;;;;;;;;;;5021954;28;20745;-83
2023/10/21 07:07:56;;;;;;;2.08;1.50;;;;;;;;;;5028813;28;20083;-83
2023/10/21 07:10:23;;;;;;;3.00;1.25;;;;;;;;;;5023753;28;20042;-83
2023/10/21 07:12:49;;;;;;;1.77;1.20;;;;;;;;;;5018604;28;20130;-83
2023/10/21 07:15:15;;;;;;;5.90;1.10;;;;;;;;;;5017048;28;20131;-82
2023/10/21 07:17:40;;;;;;;1.50;1.00;;;;;;;;;;5027775;28;20034;-84
2023/10/21 07:20:06;;;;;;;1.90;1.02;;;;;;;;;;5023708;28;20446;-82
2023/10/21 07:22:32;;;;;;;2.65;1.02;;;;;;;;;;5020904;28;20112;-83
2023/10/21 07:24:58;;;;;;;2.85;1.27;;;;;;;;;;5016669;28;20482;-83
2023/10/21 07:27:26;;;;;;;2.38;1.10;;;;;;;;;;5030554;28;20041;-83
2023/10/21 07:29:52;;;;;;;1.35;1.00;;;;;;;;;;5021476;28;20048;-83
2023/10/21 07:32:17;;;;;;;3.13;0.80;;;;;;;;;;5022772;28;20025;-84
2023/10/21 07:34:43;;;;;;;1.70;0.70;;;;;;;;;;5017288;28;20137;-82
2023/10/21 07:37:08;;;;;;;1.30;0.85;;;;;;;;;;5021603;28;20044;-86
2023/10/21 07:39:34;;;;;;;0.82;0.70;;;;;;;;;;5028128;28;20025;-84
2023/10/21 07:41:59;;;;;;;3.53;1.10;;;;;;;;;;5020368;28;20036;-81
2023/10/21 07:44:27;;;;;;;0.98;0.70;;;;;;;;;;5020572;28;20124;-82
2023/10/21 07:46:53;;;;;;;1.92;0.90;;;;;;;;;;5022056;28;20581;-83
2023/10/21 07:49:19;;;;;;;2.17;0.80;;;;;;;;;;5032791;28;20676;-82
2023/10/21 07:51:44;;;;;;;1.00;0.75;;;;;;;;;;5027717;28;20079;-82
2023/10/21 07:54:09;;;;;;;1.95;0.90;;;;;;;;;;5020327;28;20176;-82
2023/10/21 07:56:35;;;;;;;1.50;0.90;;;;;;;;;;5015793;28;20026;-83
2023/10/21 07:59:01;;;;;;;1.55;0.90;;;;;;;;;;5030156;28;20037;-83
2023/10/21 08:01:29;;;;;;;2.60;0.70;;;;;;;;;;5022181;28;20097;-83
2023/10/21 08:03:55;;;;;;;0.70;0.63;;;;;;;;;;5024081;28;20038;-82
2023/10/21 08:06:21;;;;;;;1.42;0.90;;;;;;;;;;5018487;28;20041;-83
2023/10/21 08:08:46;;;;;;;1.35;1.00;;;;;;;;;;5023312;28;20040;-82
2023/10/21 08:11:12;;;;;;;0.95;0.70;;;;;;;;;;5029466;28;20029;-83
2023/10/21 08:13:37;;;;;;;1.15;0.80;;;;;;;;;;5024237;28;20518;-85
2023/10/21 08:16:04;;;;;;;0.98;0.63;;;;;;;;;;5020782;28;20128;-83
2023/10/21 08:18:29;;;;;;;1.10;0.80;;;;;;;;;;5019885;28;20037;-83
2023/10/21 08:20:55;;;;;;;1.33;0.80;;;;;;;;;;5030994;28;20038;-82
2023/10/21 08:23:20;;;;;;;1.60;0.80;;;;;;;;;;5027191;28;20030;-83
2023/10/21 08:25:45;;;;;;;1.08;0.70;;;;;;;;;;5022279;28;20029;-83
2023/10/21 08:28:11;;;;;;;1.65;0.77;;;;;;;;;;5016115;28;20104;-83
2023/10/21 08:30:37;;;;;;;1.05;0.68;;;;;;;;;;5030572;28;20384;-85
2023/10/21 08:33:05;;;;;;;0.90;0.60;;;;;;;;;;5027293;28;20145;-83
2023/10/21 08:35:31;;;;;;;0.57;0.50;;;;;;;;;;5024475;28;20068;-82
2023/10/21 08:37:58;;;;;;;2.42;0.80;;;;;;;;;;5022427;28;20041;-83
2023/10/21 08:40:24;;;;;;;0.82;0.60;;;;;;;;;;5026765;28;20056;-83
2023/10/21 08:42:50;;;;;;;0.60;0.60;;;;;;;;;;5022325;28;20124;-86
2023/10/21 08:45:18;;;;;;;1.65;0.50;;;;;;;;;;5024700;28;20037;-84
2023/10/21 08:47:44;;;;;;;0.73;0.45;;;;;;;;;;5018766;28;20076;-85
2023/10/21 08:50:12;;;;;;;0.65;0.50;;;;;;;;;;5024547;28;20461;-84
2023/10/21 08:52:40;;;;;;;0.77;0.40;;;;;;;;;;5029994;28;20037;-85
2023/10/21 08:55:06;;;;;;;1.85;0.20;;;;;;;;;;5025011;28;20152;-84
2023/10/21 08:57:33;;;;;;;0.63;0.30;;;;;;;;;;5021157;28;20037;-86
2023/10/21 08:59:59;;;;;;;1.00;0.40;;;;;;;;;;5021638;28;20116;-86
2023/10/21 09:02:25;;;;;;;0.32;0.25;;;;;;;;;;5029746;28;20041;-86
2023/10/21 09:04:50;;;;;;;0.30;0.20;;;;;;;;;;5024801;28;20037;-85
2023/10/21 09:07:16;;;;;;;0.20;0.17;;;;;;;;;;5020409;28;20061;-85
2023/10/21 09:09:41;;;;;;;1.08;0.20;;;;;;;;;;5011573;28;20118;-83
2023/10/21 09:12:13;;;;;;;0.68;0.10;;;;;;;;;;5028919;28;20567;-84
2023/10/21 09:14:55;;;;;;;0.65;0.28;;;;;;;;;;5026425;28;20037;-85
2023/10/21 09:17:45;;;;;;;0.22;0.20;;;;;;;;;;5020629;28;20088;-84
2023/10/21 09:20:15;;;;;;;0.43;0.22;;;;;;;;;;5016371;28;20431;-83
2023/10/21 09:22:45;;;;;;;0.95;0.30;;;;;;;;;;5029469;28;20055;-83
2023/10/21 09:25:15;;;;;;;0.82;0.30;;;;;;;;;;5025083;28;20068;-83
2023/10/21 09:27:53;;;;;;;0.60;0.25;;;;;;;;;;5033346;28;20650;-84
2023/10/21 09:30:19;;;;;;;0.20;0.20;;;;;;;;;;5015186;28;20050;-82
2023/10/21 09:32:46;;;;;;;1.65;0.20;;;;;;;;;;5026644;28;20033;-86
2023/10/21 09:35:27;;;;;;;0.20;0.20;;;;;;;;;;5027138;28;20415;-82
2023/10/21 09:37:53;;;;;;;2.08;0.35;;;;;;;;;;5034947;28;20070;-84
2023/10/21 09:40:21;;;;;;;0.95;0.30;;;;;;;;;;5016710;28;20099;-84
2023/10/21 09:42:53;;;;;;;0.85;0.35;;;;;;;;;;5023342;28;20029;-82
2023/10/21 09:45:20;;;;;;;0.38;0.20;;;;;;;;;;5020806;28;20147;-82
2023/10/21 09:47:45;;;;;;;1.48;0.20;;;;;;;;;;5023326;28;20475;-84
2023/10/21 09:50:15;;;;;;;0.68;0.55;;;;;;;;;;5017887;28;20073;-87
2023/10/21 09:52:49;;;;;;;0.20;0.20;;;;;;;;;;5019856;28;20037;-81
2023/10/21 09:55:17;;;;;;;0.35;0.20;;;;;;;;;;5028127;28;20049;-81
2023/10/21 09:57:45;;;;;;;0.20;0.20;;;;;;;;;;5019180;28;20086;-82
2023/10/21 10:00:11;;;;;;;0.77;0.30;;;;;;;;;;5019823;28;20042;-82
2023/10/21 10:02:38;;;;;;;0.30;0.30;;;;;;;;;;5027733;28;20042;-82
2023/10/21 10:05:06;;;;;;;0.38;0.30;;;;;;;;;;5030017;28;20125;-84
2023/10/21 10:07:35;;;;;;;0.20;0.20;;;;;;;;;;5024858;28;20036;-83
2023/10/21 10:10:04;;;;;;;0.45;0.38;;;;;;;;;;5020343;28;20041;-84
2023/10/21 10:12:53;;;;;;;0.52;0.30;;;;;;;;;;5016073;28;20037;-84
2023/10/21 10:15:34;;;;;;;2.88;0.55;;;;;;;;;;5029215;28;20049;-85
2023/10/21 10:18:03;;;;;;;0.57;0.43;;;;;;;;;;5036219;28;20039;-86
2023/10/21 10:20:29;;;;;;;1.48;0.30;;;;;;;;;;5020514;28;20095;-84
2023/10/21 10:22:58;;;;;;;0.85;0.60;;;;;;;;;;5015116;28;20076;-85
2023/10/21 10:25:27;;;;;;;1.55;0.40;;;;;;;;;;5025749;28;20033;-85
2023/10/21 10:28:04;;;;;;;1.13;0.60;;;;;;;;;;5026218;28;20030;-85
2023/10/21 10:30:34;;;;;;;3.83;1.00;;;;;;;;;;5019618;28;20045;-83
2023/10/21 10:33:08;;;;;;;2.05;0.60;;;;;;;;;;5015039;28;20033;-84
2023/10/21 10:35:34;;;;;;;3.15;0.55;;;;;;;;;;5021929;28;20042;-84
2023/10/21 10:38:01;;;;;;;1.15;0.30;;;;;;;;;;5028068;28;20021;-85
2023/10/21 10:40:40;;;;;;;0.40;0.30;;;;;;;;;;5021820;28;20052;-85
2023/10/21 10:43:10;;;;;;;0.88;0.50;;;;;;;;;;5015556;28;20389;-83
2023/10/21 10:45:37;;;;;;;0.85;0.60;;;;;;;;;;5021853;28;20563;-83
2023/10/21 10:48:03;;;;;;;0.43;0.40;;;;;;;;;;5028364;28;20129;-84
2023/10/21 10:50:36;;;;;;;1.63;0.40;;;;;;;;;;5024115;28;20461;-85
2023/10/21 10:53:14;;;;;;;0.88;0.40;;;;;;;;;;5016231;28;20049;-83
2023/10/21 10:55:42;;;;;;;0.60;0.30;;;;;;;;;;5017204;28;20042;-83
2023/10/21 10:58:07;;;;;;;1.65;0.40;;;;;;;;;;5028661;28;20033;-84
2023/10/21 11:00:33;;;;;;;1.10;0.40;;;;;;;;;;5023262;28;20041;-83
2023/10/21 11:02:59;;;;;;;0.52;0.50;;;;;;;;;;5018437;28;20044;-84
2023/10/21 11:05:25;;;;;;;0.60;0.40;;;;;;;;;;5014909;28;20030;-83
2023/10/21 11:07:52;;;;;;;0.43;0.43;;;;;;;;;;5029123;28;20095;-83
2023/10/21 11:10:22;;;;;;;0.20;0.20;;;;;;;;;;5024998;28;20084;-83
2023/10/21 11:12:48;;;;;;;2.30;0.60;;;;;;;;;;5019765;28;20056;-83
2023/10/21 11:15:14;;;;;;;1.85;0.45;;;;;;;;;;5015359;28;20072;-84
2023/10/21 11:17:40;;;;;;;2.05;0.52;;;;;;;;;;5025075;28;20038;-83
2023/10/21 11:20:07;;;;;;;0.88;0.60;;;;;;;;;;5029357;28;20069;-83
2023/10/21 11:22:33;;;;;;;0.52;0.30;;;;;;;;;;5025054;28;20061;-84
2023/10/21 11:24:59;;;;;;;0.82;0.60;;;;;;;;;;5022804;28;20443;-85
2023/10/21 11:27:26;;;;;;;0.77;0.50;;;;;;;;;;5021061;28;20030;-86
2023/10/21 11:29:52;;;;;;;1.05;0.40;;;;;;;;;;5030983;28;20461;-85
2023/10/21 11:32:28;;;;;;;0.55;0.35;;;;;;;;;;5024510;28;20512;-85
2023/10/21 11:35:04;;;;;;;0.70;0.50;;;;;;;;;;5021049;28;20518;-83
2023/10/21 11:37:31;;;;;;;1.27;0.50;;;;;;;;;;5016321;28;20029;-83
2023/10/21 11:40:00;;;;;;;0.82;0.50;;;;;;;;;;5026434;28;20049;-83
2023/10/21 11:42:27;;;;;;;0.75;0.30;;;;;;;;;;5018999;28;20049;-84
2023/10/21 11:44:55;;;;;;;1.08;0.40;;;;;;;;;;5005313;28;20042;-85
2023/10/21 11:47:24;;;;;;;0.80;0.50;;;;;;;;;;4998367;28;20038;-86
2023/10/21 11:49:52;;;;;;;0.52;0.50;;;;;;;;;;5032183;28;20044;-84
2023/10/21 11:52:18;;;;;;;1.98;0.50;;;;;;;;;;5027964;28;20117;-83
2023/10/21 11:54:46;;;;;;;2.58;0.63;;;;;;;;;;5024116;28;20120;-84
2023/10/21 11:57:41;;;;;;;0.55;0.32;;;;;;;;;;5032365;28;20041;-84
2023/10/21 12:39:57;;;;;;;0.68;0.50;;;;;;;;;;5025435;28;20073;-86
2023/10/21 12:42:28;;;;;;;1.20;0.70;;;;;;;;;;5025633;28;20483;-86
2023/10/21 12:44:55;;;;;;;6.45;2.72;;;;;;;;;;5026795;28;20156;-86
2023/10/21 12:47:22;;;;;;;2.08;0.73;;;;;;;;;;5016067;28;20034;-86
2023/10/21 12:49:50;;;;;;;0.98;0.60;;;;;;;;;;5017784;28;20064;-86
2023/10/21 12:52:16;;;;;;;1.95;0.70;;;;;;;;;;5027873;28;20399;-86
2023/10/21 12:54:43;;;;;;;0.55;0.50;;;;;;;;;;5028833;28;20037;-86
2023/10/21 12:57:10;;;;;;;0.98;0.52;;;;;;;;;;5020512;28;20033;-86
2023/10/21 12:59:36;;;;;;;0.95;0.50;;;;;;;;;;5018228;28;20034;-85
2023/10/21 13:02:07;;;;;;;1.58;0.60;;;;;;;;;;5026465;28;20049;-85
2023/10/21 13:04:34;;;;;;;0.60;0.50;;;;;;;;;;5025402;28;20125;-85
2023/10/21 13:07:00;;;;;;;0.68;0.50;;;;;;;;;;5022989;28;20487;-84
2023/10/21 13:09:29;;;;;;;1.50;0.52;;;;;;;;;;5021040;28;20038;-84
2023/10/21 13:11:55;;;;;;;0.98;0.50;;;;;;;;;;5022742;28;20410;-84
2023/10/21 13:14:21;;;;;;;2.90;0.77;;;;;;;;;;5030232;28;20135;-85
2023/10/21 13:16:47;;;;;;;1.90;0.80;;;;;;;;;;5011060;28;20046;-84
2023/10/21 13:19:14;;;;;;;2.05;0.60;;;;;;;;;;5008090;28;20117;-86
2023/10/21 13:21:40;;;;;;;0.95;0.60;;;;;;;;;;5019052;28;20042;-85
2023/10/21 13:24:06;;;;;;;1.27;0.60;;;;;;;;;;5029005;28;20073;-84
2023/10/21 13:26:32;;;;;;;0.85;0.40;;;;;;;;;;5025810;28;20052;-84
2023/10/21 13:28:59;;;;;;;0.85;0.50;;;;;;;;;;5021014;28;20037;-83
2023/10/21 13:31:24;;;;;;;0.55;0.50;;;;;;;;;;5016539;28;20048;-84
2023/10/21 13:33:50;;;;;;;0.80;0.47;;;;;;;;;;5030663;28;20112;-85
2023/10/21 13:36:15;;;;;;;0.80;0.50;;;;;;;;;;5026908;28;20399;-82
2023/10/21 13:38:41;;;;;;;0.70;0.60;;;;;;;;;;5024376;28;20076;-85
2023/10/21 13:41:06;;;;;;;4.05;0.70;;;;;;;;;;5017887;28;20072;-84
2023/10/21 13:43:32;;;;;;;0.85;0.50;;;;;;;;;;5027045;28;20037;-84
2023/10/21 13:46:02;;;;;;;3.28;0.52;;;;;;;;;;5028476;28;20033;-84
2023/10/21 13:48:28;;;;;;;0.90;0.35;;;;;;;;;;5020672;28;20061;-85
2023/10/21 13:50:53;;;;;;;0.60;0.45;;;;;;;;;;5023233;28;20041;-84
2023/10/21 13:53:24;;;;;;;2.55;0.50;;;;;;;;;;5026082;28;20040;-84
2023/10/21 13:55:50;;;;;;;0.55;0.40;;;;;;;;;;5033048;28;20116;-84
2023/10/21 13:58:15;;;;;;;1.35;0.50;;;;;;;;;;5029567;28;20065;-85
2023/10/21 14:00:41;;;;;;;1.67;0.55;;;;;;;;;;5026131;28;20026;-85
2023/10/21 14:03:15;;;;;;;0.52;0.40;;;;;;;;;;5019082;28;20038;-88
2023/10/21 14:05:41;;;;;;;0.73;0.50;;;;;;;;;;5029832;28;20025;-83
2023/10/21 14:08:10;;;;;;;2.42;0.50;;;;;;;;;;5027435;28;20033;-86
2023/10/21 14:10:40;;;;;;;2.42;0.80;;;;;;;;;;5024717;28;20041;-86
2023/10/21 14:13:07;;;;;;;1.45;0.70;;;;;;;;;;5013802;28;20037;-85
2023/10/21 14:15:36;;;;;;;1.85;1.02;;;;;;;;;;5027344;28;20065;-85
2023/10/21 14:18:06;;;;;;;2.85;0.80;;;;;;;;;;5026535;28;20122;-86
2023/10/21 14:20:41;;;;;;;1.45;0.80;;;;;;;;;;5021031;28;20061;-85
2023/10/21 14:23:20;;;;;;;1.95;0.70;;;;;;;;;;5015278;28;20124;-85
2023/10/21 14:25:52;;;;;;;4.15;1.10;;;;;;;;;;5026113;28;20037;-84
2023/10/21 14:28:18;;;;;;;2.08;0.68;;;;;;;;;;5021377;28;20041;-85
2023/10/21 14:30:51;;;;;;;0.60;0.45;;;;;;;;;;5020584;28;20123;-84
2023/10/21 14:33:18;;;;;;;1.60;0.60;;;;;;;;;;5009295;28;20116;-87
2023/10/21 14:35:47;;;;;;;1.10;0.65;;;;;;;;;;5028707;28;20033;-88
2023/10/21 14:38:13;;;;;;;1.38;0.70;;;;;;;;;;5021418;28;20082;-87
2023/10/21 14:40:40;;;;;;;0.90;0.70;;;;;;;;;;5023331;28;20154;-87
2023/10/21 14:43:08;;;;;;;1.55;0.70;;;;;;;;;;5018469;28;20042;-88
2023/10/21 14:45:37;;;;;;;1.20;0.80;;;;;;;;;;5020008;28;20487;-87
2023/10/21 14:48:07;;;;;;;0.88;0.70;;;;;;;;;;5029365;28;20092;-88
2023/10/21 14:50:40;;;;;;;1.20;0.80;;;;;;;;;;5023419;28;20072;-89
2023/10/21 14:53:09;;;;;;;1.38;0.63;;;;;;;;;;5016303;28;20498;-87
2023/10/21 14:55:37;;;;;;;1.25;0.70;;;;;;;;;;5009966;28;20034;-88
2023/10/21 14:58:04;;;;;;;1.88;0.60;;;;;;;;;;5029666;28;20629;-87
2023/10/21 15:00:30;;;;;;;0.90;0.60;;;;;;;;;;5027457;28;20038;-87
2023/10/21 15:02:55;;;;;;;1.90;0.52;;;;;;;;;;5008955;28;20041;-87
2023/10/21 15:05:22;;;;;;;1.17;0.65;;;;;;;;;;5000745;28;20038;-88
2023/10/21 15:07:47;;;;;;;2.15;0.70;;;;;;;;;;5024770;28;20037;-88
2023/10/21 15:10:17;;;;;;;2.95;0.70;;;;;;;;;;5029593;28;20399;-87
2023/10/21 15:12:43;;;;;;;1.60;0.73;;;;;;;;;;5020881;28;20065;-88
2023/10/21 15:15:10;;;;;;;0.82;0.68;;;;;;;;;;5019339;28;20030;-86
2023/10/21 15:17:37;;;;;;;1.73;0.70;;;;;;;;;;5024548;28;20065;-85
2023/10/21 15:20:03;;;;;;;1.10;0.57;;;;;;;;;;5028769;28;20034;-83
2023/10/21 15:22:29;;;;;;;1.30;0.70;;;;;;;;;;5015468;28;20034;-83